createdAt,value
2023-04-21T17:13:09.244Z,3.47
2023-04-21T17:18:13.927Z,4.23
2023-04-21T17:23:20.094Z,3.90
2023-04-21T17:28:28.412Z,4.37
2023-04-21T17:33:35.381Z,4.30
2023-04-21T17:38:41.407Z,4.70
2023-04-21T17:43:48.702Z,4.53
2023-04-21T17:48:53.284Z,4.63
2023-04-21T17:53:57.335Z,4.23
2023-04-21T17:59:04.265Z,4.30
2023-04-21T18:04:09.034Z,4.27
2023-04-21T18:09:13.400Z,3.90
2023-04-21T18:14:19.530Z,4.23
2023-04-21T18:19:23.494Z,4.63
2023-04-21T18:24:27.667Z,4.30
2023-04-21T18:29:33.673Z,4.30
2023-04-21T18:34:37.906Z,3.87
2023-04-21T18:39:42.447Z,4.30
2023-04-21T18:44:48.686Z,4.47
2023-04-21T18:49:52.673Z,2.43
2023-04-21T18:54:56.795Z,1.67
2023-04-21T19:00:02.708Z,1.60
2023-04-21T19:05:07.838Z,1.47
2023-04-21T19:10:12.609Z,1.63
2023-04-21T19:15:18.671Z,2.10
2023-04-21T19:20:22.918Z,2.30
2023-04-21T19:25:26.898Z,2.20
2023-04-21T19:30:32.996Z,2.20
2023-04-21T19:35:37.417Z,2.37
2023-04-21T19:40:43.891Z,2.83
2023-04-21T19:45:51.020Z,2.60
2023-04-21T19:50:55.140Z,2.60
2023-04-21T19:55:59.330Z,2.93
2023-04-21T20:01:05.579Z,3.00
2023-04-21T20:06:09.860Z,2.63
2023-04-21T20:11:13.844Z,2.70
2023-04-21T20:16:20.315Z,2.77
2023-04-21T20:21:24.408Z,3.30
2023-04-21T20:26:28.524Z,3.83
2023-04-21T20:31:34.506Z,4.50
2023-04-21T20:36:38.609Z,4.50
2023-04-21T20:41:45.207Z,3.90
2023-04-21T20:46:51.364Z,4.20
2023-04-21T20:51:59.152Z,4.10
2023-04-21T20:57:03.397Z,4.50
2023-04-21T21:02:09.941Z,4.50
2023-04-21T21:07:14.115Z,4.70
2023-04-21T21:12:18.157Z,4.90
2023-04-21T21:17:24.168Z,5.27
2023-04-21T21:22:28.269Z,5.10
2023-04-21T21:27:32.292Z,5.77
2023-04-21T21:32:38.398Z,5.13
